Accueil
METAR-TAF:

METAR-TAF

Aéroports :

Base aérienne

Niederstetten, Allemagne

latitude: 49-24N, longitude: 009-58E, altitude: 468 m

Observation

Le bulletin a été fait il y a 1 heure et 6 minutes, à 01:20 UTC
Vent calme
Température 17°C
Humidité 68%
Pression 1022 hPa
Visibilité 10 km ou plus
Nuages fragmentés à une hauteur de 11000 ft
Nuages fragmentés à une hauteur de 32000 ft

METAR: ETHN 190120Z 00000KT 9999 BKN110 BKN320 17/11 Q1022 BLU

Heure: 04:26 (02:26 UTC)


TAF: absent

Observations et prévisions météorologiques de plus de 4000 aéroports (messages METAR et TAF).

Les stations disponibles sont représentées par des disques jaunes et rouges sur la carte.

Passer la souris dessus pour voir le nom de la station.

Cliquer dessus pour voir les observations et prévisions météorologiques.

Pour changer de carte: cliquez sur les boutons verts avec une croix noire pour zoomer, sur le bouton vert avec un tiret pour effectuer un zoom arrière, ou sur les flèches vertes pour les cartes adjacentes.


METAR-TAF: